sensor_id;sensor_type;location;lat;lon;timestamp;P1;durP1;ratioP1;P2;durP2;ratioP2
22786;SDS011;63134;52.020;4.714;2023-07-28T00:00:39;11.00;;;6.53;;
22786;SDS011;63134;52.020;4.714;2023-07-28T00:03:24;11.50;;;5.65;;
22786;SDS011;63134;52.020;4.714;2023-07-28T00:06:10;8.55;;;5.75;;
22786;SDS011;63134;52.020;4.714;2023-07-28T00:08:55;10.73;;;5.78;;
22786;SDS011;63134;52.020;4.714;2023-07-28T00:11:41;10.70;;;5.70;;
22786;SDS011;63134;52.020;4.714;2023-07-28T00:14:26;10.52;;;6.47;;
22786;SDS011;63134;52.020;4.714;2023-07-28T00:17:12;11.05;;;6.70;;
22786;SDS011;63134;52.020;4.714;2023-07-28T00:19:58;12.30;;;7.03;;
22786;SDS011;63134;52.020;4.714;2023-07-28T00:22:43;13.77;;;7.50;;
22786;SDS011;63134;52.020;4.714;2023-07-28T00:25:29;9.65;;;6.88;;
22786;SDS011;63134;52.020;4.714;2023-07-28T00:28:14;10.25;;;6.68;;
22786;SDS011;63134;52.020;4.714;2023-07-28T00:31:00;16.67;;;7.55;;
22786;SDS011;63134;52.020;4.714;2023-07-28T00:33:46;7.28;;;5.93;;
22786;SDS011;63134;52.020;4.714;2023-07-28T00:36:31;7.32;;;5.43;;
22786;SDS011;63134;52.020;4.714;2023-07-28T00:39:18;12.05;;;6.80;;
22786;SDS011;63134;52.020;4.714;2023-07-28T00:42:05;12.48;;;7.28;;
22786;SDS011;63134;52.020;4.714;2023-07-28T00:44:51;10.57;;;7.47;;
22786;SDS011;63134;52.020;4.714;2023-07-28T00:47:36;15.93;;;8.68;;
22786;SDS011;63134;52.020;4.714;2023-07-28T00:50:22;12.80;;;6.80;;
22786;SDS011;63134;52.020;4.714;2023-07-28T00:53:08;14.30;;;7.68;;
22786;SDS011;63134;52.020;4.714;2023-07-28T00:55:55;9.32;;;6.90;;
22786;SDS011;63134;52.020;4.714;2023-07-28T00:58:40;12.07;;;7.32;;
22786;SDS011;63134;52.020;4.714;2023-07-28T01:01:28;14.65;;;7.72;;
22786;SDS011;63134;52.020;4.714;2023-07-28T01:04:14;10.60;;;6.88;;
22786;SDS011;63134;52.020;4.714;2023-07-28T01:07:09;9.82;;;6.43;;
22786;SDS011;63134;52.020;4.714;2023-07-28T01:10:02;14.75;;;7.35;;
22786;SDS011;63134;52.020;4.714;2023-07-28T01:12:53;7.65;;;6.85;;
22786;SDS011;63134;52.020;4.714;2023-07-28T01:15:39;12.52;;;8.20;;
22786;SDS011;63134;52.020;4.714;2023-07-28T01:18:25;15.00;;;8.95;;
22786;SDS011;63134;52.020;4.714;2023-07-28T01:21:13;12.60;;;8.32;;
22786;SDS011;63134;52.020;4.714;2023-07-28T01:26:59;13.85;;;7.85;;
22786;SDS011;63134;52.020;4.714;2023-07-28T01:29:44;10.93;;;7.18;;
22786;SDS011;63134;52.020;4.714;2023-07-28T01:32:30;13.00;;;7.97;;
22786;SDS011;63134;52.020;4.714;2023-07-28T01:35:16;12.38;;;8.20;;
22786;SDS011;63134;52.020;4.714;2023-07-28T01:38:02;18.02;;;9.32;;
22786;SDS011;63134;52.020;4.714;2023-07-28T01:40:47;13.85;;;8.10;;
22786;SDS011;63134;52.020;4.714;2023-07-28T01:43:33;12.13;;;7.82;;
22786;SDS011;63134;52.020;4.714;2023-07-28T01:46:24;13.38;;;8.32;;
22786;SDS011;63134;52.020;4.714;2023-07-28T01:49:09;11.27;;;7.47;;
22786;SDS011;63134;52.020;4.714;2023-07-28T01:51:57;15.13;;;7.90;;
22786;SDS011;63134;52.020;4.714;2023-07-28T01:54:43;15.23;;;8.00;;
22786;SDS011;63134;52.020;4.714;2023-07-28T01:57:32;12.27;;;7.60;;
22786;SDS011;63134;52.020;4.714;2023-07-28T02:00:18;11.68;;;6.93;;
22786;SDS011;63134;52.020;4.714;2023-07-28T02:03:09;12.23;;;7.65;;
22786;SDS011;63134;52.020;4.714;2023-07-28T02:05:55;15.90;;;8.95;;
22786;SDS011;63134;52.020;4.714;2023-07-28T02:08:40;16.13;;;8.75;;
22786;SDS011;63134;52.020;4.714;2023-07-28T02:11:26;19.80;;;8.85;;
22786;SDS011;63134;52.020;4.714;2023-07-28T02:14:11;16.77;;;8.90;;
22786;SDS011;63134;52.020;4.714;2023-07-28T02:16:57;15.27;;;8.18;;
22786;SDS011;63134;52.020;4.714;2023-07-28T02:19:43;15.82;;;8.63;;
22786;SDS011;63134;52.020;4.714;2023-07-28T02:22:29;14.85;;;8.32;;
22786;SDS011;63134;52.020;4.714;2023-07-28T02:25:15;14.43;;;8.25;;
22786;SDS011;63134;52.020;4.714;2023-07-28T02:28:00;15.00;;;7.85;;
22786;SDS011;63134;52.020;4.714;2023-07-28T02:30:46;17.55;;;8.45;;
22786;SDS011;63134;52.020;4.714;2023-07-28T02:33:32;15.52;;;9.30;;
22786;SDS011;63134;52.020;4.714;2023-07-28T02:36:21;19.25;;;10.07;;
22786;SDS011;63134;52.020;4.714;2023-07-28T02:39:06;13.98;;;8.20;;
22786;SDS011;63134;52.020;4.714;2023-07-28T02:41:52;12.75;;;8.48;;
22786;SDS011;63134;52.020;4.714;2023-07-28T02:44:38;13.77;;;8.80;;
22786;SDS011;63134;52.020;4.714;2023-07-28T02:47:24;12.05;;;7.80;;
22786;SDS011;63134;52.020;4.714;2023-07-28T02:50:09;13.13;;;8.27;;
22786;SDS011;63134;52.020;4.714;2023-07-28T02:52:55;14.45;;;7.65;;
22786;SDS011;63134;52.020;4.714;2023-07-28T02:55:44;16.33;;;8.50;;
22786;SDS011;63134;52.020;4.714;2023-07-28T02:58:31;15.07;;;8.95;;
22786;SDS011;63134;52.020;4.714;2023-07-28T03:01:19;9.85;;;7.40;;
22786;SDS011;63134;52.020;4.714;2023-07-28T03:04:04;16.15;;;8.13;;
22786;SDS011;63134;52.020;4.714;2023-07-28T03:07:11;16.88;;;9.23;;
22786;SDS011;63134;52.020;4.714;2023-07-28T03:09:58;14.77;;;9.27;;
22786;SDS011;63134;52.020;4.714;2023-07-28T03:12:44;16.02;;;10.30;;
22786;SDS011;63134;52.020;4.714;2023-07-28T03:15:30;18.95;;;10.80;;
22786;SDS011;63134;52.020;4.714;2023-07-28T03:18:15;26.40;;;12.77;;
22786;SDS011;63134;52.020;4.714;2023-07-28T03:21:01;15.50;;;9.75;;
22786;SDS011;63134;52.020;4.714;2023-07-28T03:23:46;21.30;;;11.27;;
22786;SDS011;63134;52.020;4.714;2023-07-28T03:26:32;19.63;;;11.38;;
22786;SDS011;63134;52.020;4.714;2023-07-28T03:29:18;20.88;;;11.10;;
22786;SDS011;63134;52.020;4.714;2023-07-28T03:32:04;18.30;;;11.27;;
22786;SDS011;63134;52.020;4.714;2023-07-28T03:34:50;19.75;;;10.93;;
22786;SDS011;63134;52.020;4.714;2023-07-28T03:37:37;18.02;;;11.05;;
22786;SDS011;63134;52.020;4.714;2023-07-28T03:40:23;18.05;;;11.05;;
22786;SDS011;63134;52.020;4.714;2023-07-28T03:43:12;18.55;;;12.73;;
22786;SDS011;63134;52.020;4.714;2023-07-28T03:45:58;14.20;;;9.93;;
22786;SDS011;63134;52.020;4.714;2023-07-28T03:48:45;18.10;;;11.55;;
22786;SDS011;63134;52.020;4.714;2023-07-28T03:51:33;23.05;;;12.68;;
22786;SDS011;63134;52.020;4.714;2023-07-28T03:54:18;17.75;;;10.85;;
22786;SDS011;63134;52.020;4.714;2023-07-28T03:57:08;15.52;;;9.95;;
22786;SDS011;63134;52.020;4.714;2023-07-28T03:59:54;18.50;;;10.65;;
22786;SDS011;63134;52.020;4.714;2023-07-28T04:02:39;13.57;;;10.30;;
22786;SDS011;63134;52.020;4.714;2023-07-28T04:05:25;19.45;;;10.38;;
22786;SDS011;63134;52.020;4.714;2023-07-28T04:08:13;16.73;;;9.93;;
22786;SDS011;63134;52.020;4.714;2023-07-28T04:10:59;17.83;;;10.48;;
22786;SDS011;63134;52.020;4.714;2023-07-28T04:13:44;16.83;;;11.30;;
22786;SDS011;63134;52.020;4.714;2023-07-28T04:16:30;19.17;;;10.93;;
22786;SDS011;63134;52.020;4.714;2023-07-28T04:19:16;17.58;;;10.40;;
22786;SDS011;63134;52.020;4.714;2023-07-28T04:22:02;19.52;;;11.52;;
22786;SDS011;63134;52.020;4.714;2023-07-28T04:24:53;17.83;;;11.40;;
22786;SDS011;63134;52.020;4.714;2023-07-28T04:27:39;14.20;;;11.07;;
22786;SDS011;63134;52.020;4.714;2023-07-28T04:30:24;20.42;;;11.98;;
22786;SDS011;63134;52.020;4.714;2023-07-28T04:33:10;26.38;;;14.63;;
22786;SDS011;63134;52.020;4.714;2023-07-28T04:35:56;21.52;;;12.88;;
22786;SDS011;63134;52.020;4.714;2023-07-28T04:38:50;21.20;;;11.55;;
22786;SDS011;63134;52.020;4.714;2023-07-28T04:41:35;17.25;;;11.20;;
22786;SDS011;63134;52.020;4.714;2023-07-28T04:44:21;14.00;;;10.15;;
22786;SDS011;63134;52.020;4.714;2023-07-28T04:47:13;20.73;;;11.95;;
22786;SDS011;63134;52.020;4.714;2023-07-28T04:49:59;15.63;;;10.07;;
22786;SDS011;63134;52.020;4.714;2023-07-28T04:53:03;13.25;;;10.07;;
22786;SDS011;63134;52.020;4.714;2023-07-28T04:56:12;21.00;;;11.57;;
22786;SDS011;63134;52.020;4.714;2023-07-28T04:58:57;21.45;;;12.20;;
22786;SDS011;63134;52.020;4.714;2023-07-28T05:01:43;20.92;;;12.32;;
22786;SDS011;63134;52.020;4.714;2023-07-28T05:04:29;15.35;;;10.35;;
22786;SDS011;63134;52.020;4.714;2023-07-28T05:07:15;22.85;;;12.00;;
22786;SDS011;63134;52.020;4.714;2023-07-28T05:10:00;14.65;;;10.10;;
22786;SDS011;63134;52.020;4.714;2023-07-28T05:12:46;15.27;;;10.27;;
22786;SDS011;63134;52.020;4.714;2023-07-28T05:15:32;15.95;;;10.18;;
22786;SDS011;63134;52.020;4.714;2023-07-28T05:18:18;20.88;;;11.02;;
22786;SDS011;63134;52.020;4.714;2023-07-28T05:21:18;15.43;;;9.32;;
22786;SDS011;63134;52.020;4.714;2023-07-28T05:24:05;11.32;;;8.20;;
22786;SDS011;63134;52.020;4.714;2023-07-28T05:26:52;12.43;;;8.82;;
22786;SDS011;63134;52.020;4.714;2023-07-28T05:29:38;17.20;;;9.75;;
22786;SDS011;63134;52.020;4.714;2023-07-28T05:32:24;20.45;;;10.38;;
22786;SDS011;63134;52.020;4.714;2023-07-28T05:35:29;10.60;;;7.50;;
22786;SDS011;63134;52.020;4.714;2023-07-28T05:38:15;18.27;;;10.70;;
22786;SDS011;63134;52.020;4.714;2023-07-28T05:41:01;11.73;;;9.10;;
22786;SDS011;63134;52.020;4.714;2023-07-28T05:43:52;15.48;;;9.43;;
22786;SDS011;63134;52.020;4.714;2023-07-28T05:46:37;16.27;;;9.77;;
22786;SDS011;63134;52.020;4.714;2023-07-28T05:49:26;15.77;;;10.50;;
22786;SDS011;63134;52.020;4.714;2023-07-28T05:52:12;14.25;;;9.05;;
22786;SDS011;63134;52.020;4.714;2023-07-28T05:54:58;17.25;;;10.35;;
22786;SDS011;63134;52.020;4.714;2023-07-28T05:57:44;13.13;;;9.55;;
22786;SDS011;63134;52.020;4.714;2023-07-28T06:00:30;12.00;;;8.00;;
22786;SDS011;63134;52.020;4.714;2023-07-28T06:03:15;15.60;;;8.88;;
22786;SDS011;63134;52.020;4.714;2023-07-28T06:06:23;13.27;;;8.27;;
22786;SDS011;63134;52.020;4.714;2023-07-28T06:09:09;13.57;;;9.20;;
22786;SDS011;63134;52.020;4.714;2023-07-28T06:11:55;17.17;;;9.73;;
22786;SDS011;63134;52.020;4.714;2023-07-28T06:14:44;10.98;;;8.18;;
22786;SDS011;63134;52.020;4.714;2023-07-28T06:17:36;11.45;;;7.13;;
22786;SDS011;63134;52.020;4.714;2023-07-28T06:20:22;15.52;;;9.10;;
22786;SDS011;63134;52.020;4.714;2023-07-28T06:23:08;15.88;;;8.60;;
22786;SDS011;63134;52.020;4.714;2023-07-28T06:25:53;13.75;;;8.07;;
22786;SDS011;63134;52.020;4.714;2023-07-28T06:28:41;13.45;;;8.52;;
22786;SDS011;63134;52.020;4.714;2023-07-28T06:31:28;12.52;;;7.40;;
22786;SDS011;63134;52.020;4.714;2023-07-28T06:34:14;14.50;;;8.13;;
22786;SDS011;63134;52.020;4.714;2023-07-28T06:37:00;9.65;;;6.53;;
22786;SDS011;63134;52.020;4.714;2023-07-28T06:39:45;11.50;;;6.80;;
22786;SDS011;63134;52.020;4.714;2023-07-28T06:42:30;12.50;;;6.45;;
22786;SDS011;63134;52.020;4.714;2023-07-28T06:45:19;10.77;;;6.88;;
22786;SDS011;63134;52.020;4.714;2023-07-28T06:48:05;9.93;;;6.57;;
22786;SDS011;63134;52.020;4.714;2023-07-28T06:50:54;10.88;;;5.97;;
22786;SDS011;63134;52.020;4.714;2023-07-28T06:53:39;13.73;;;6.43;;
22786;SDS011;63134;52.020;4.714;2023-07-28T06:56:25;7.00;;;5.90;;
22786;SDS011;63134;52.020;4.714;2023-07-28T06:59:11;10.15;;;5.47;;
22786;SDS011;63134;52.020;4.714;2023-07-28T07:02:03;13.13;;;5.85;;
22786;SDS011;63134;52.020;4.714;2023-07-28T07:04:50;12.07;;;6.95;;
22786;SDS011;63134;52.020;4.714;2023-07-28T07:07:35;9.95;;;6.10;;
22786;SDS011;63134;52.020;4.714;2023-07-28T07:10:21;8.07;;;6.53;;
22786;SDS011;63134;52.020;4.714;2023-07-28T07:13:07;8.88;;;6.82;;
22786;SDS011;63134;52.020;4.714;2023-07-28T07:15:53;10.98;;;7.05;;
22786;SDS011;63134;52.020;4.714;2023-07-28T07:18:40;10.27;;;6.43;;
22786;SDS011;63134;52.020;4.714;2023-07-28T07:21:27;9.52;;;6.05;;
22786;SDS011;63134;52.020;4.714;2023-07-28T07:24:13;8.40;;;5.35;;
22786;SDS011;63134;52.020;4.714;2023-07-28T07:26:59;6.00;;;4.93;;
22786;SDS011;63134;52.020;4.714;2023-07-28T07:29:44;10.55;;;5.65;;
22786;SDS011;63134;52.020;4.714;2023-07-28T07:32:36;9.30;;;5.60;;
22786;SDS011;63134;52.020;4.714;2023-07-28T07:35:22;6.70;;;5.70;;
22786;SDS011;63134;52.020;4.714;2023-07-28T07:38:08;10.20;;;6.28;;
22786;SDS011;63134;52.020;4.714;2023-07-28T07:40:54;7.53;;;6.07;;
22786;SDS011;63134;52.020;4.714;2023-07-28T07:43:39;6.15;;;5.55;;
22786;SDS011;63134;52.020;4.714;2023-07-28T07:46:25;8.38;;;5.53;;
22786;SDS011;63134;52.020;4.714;2023-07-28T07:49:11;8.18;;;5.45;;
22786;SDS011;63134;52.020;4.714;2023-07-28T07:51:56;8.32;;;5.30;;
22786;SDS011;63134;52.020;4.714;2023-07-28T07:54:42;8.32;;;5.47;;
22786;SDS011;63134;52.020;4.714;2023-07-28T07:57:28;6.85;;;5.68;;
22786;SDS011;63134;52.020;4.714;2023-07-28T08:00:14;8.77;;;6.10;;
22786;SDS011;63134;52.020;4.714;2023-07-28T08:02:59;6.15;;;4.90;;
22786;SDS011;63134;52.020;4.714;2023-07-28T08:05:45;9.35;;;5.50;;
22786;SDS011;63134;52.020;4.714;2023-07-28T08:08:31;9.52;;;6.47;;
22786;SDS011;63134;52.020;4.714;2023-07-28T08:11:16;7.55;;;4.68;;
22786;SDS011;63134;52.020;4.714;2023-07-28T08:14:02;7.10;;;4.97;;
22786;SDS011;63134;52.020;4.714;2023-07-28T08:16:47;7.80;;;4.75;;
22786;SDS011;63134;52.020;4.714;2023-07-28T08:19:33;6.65;;;4.57;;
22786;SDS011;63134;52.020;4.714;2023-07-28T08:22:18;15.05;;;6.07;;
22786;SDS011;63134;52.020;4.714;2023-07-28T08:25:04;9.32;;;5.28;;
22786;SDS011;63134;52.020;4.714;2023-07-28T08:27:50;11.20;;;5.07;;
22786;SDS011;63134;52.020;4.714;2023-07-28T08:30:36;9.88;;;4.88;;
22786;SDS011;63134;52.020;4.714;2023-07-28T08:33:21;8.00;;;5.03;;
22786;SDS011;63134;52.020;4.714;2023-07-28T08:36:07;7.30;;;4.65;;
22786;SDS011;63134;52.020;4.714;2023-07-28T08:38:52;7.95;;;4.88;;
22786;SDS011;63134;52.020;4.714;2023-07-28T08:41:41;7.78;;;4.20;;
22786;SDS011;63134;52.020;4.714;2023-07-28T08:44:31;8.70;;;5.32;;
22786;SDS011;63134;52.020;4.714;2023-07-28T08:47:17;6.75;;;4.30;;
22786;SDS011;63134;52.020;4.714;2023-07-28T08:50:04;10.32;;;4.70;;
22786;SDS011;63134;52.020;4.714;2023-07-28T08:52:51;6.07;;;3.97;;
22786;SDS011;63134;52.020;4.714;2023-07-28T08:55:36;6.07;;;3.80;;
22786;SDS011;63134;52.020;4.714;2023-07-28T08:58:22;5.97;;;3.55;;
22786;SDS011;63134;52.020;4.714;2023-07-28T09:01:10;10.82;;;4.95;;
22786;SDS011;63134;52.020;4.714;2023-07-28T09:03:57;8.07;;;4.97;;
22786;SDS011;63134;52.020;4.714;2023-07-28T09:06:46;8.27;;;4.72;;
22786;SDS011;63134;52.020;4.714;2023-07-28T09:09:32;12.07;;;5.55;;
22786;SDS011;63134;52.020;4.714;2023-07-28T09:12:18;8.98;;;4.85;;
22786;SDS011;63134;52.020;4.714;2023-07-28T09:15:09;8.85;;;5.50;;
22786;SDS011;63134;52.020;4.714;2023-07-28T09:17:54;5.80;;;4.20;;
22786;SDS011;63134;52.020;4.714;2023-07-28T09:20:40;5.30;;;4.40;;
22786;SDS011;63134;52.020;4.714;2023-07-28T09:23:30;9.65;;;4.68;;
22786;SDS011;63134;52.020;4.714;2023-07-28T09:26:15;6.78;;;4.45;;
22786;SDS011;63134;52.020;4.714;2023-07-28T09:29:09;6.43;;;5.10;;
22786;SDS011;63134;52.020;4.714;2023-07-28T09:32:17;9.27;;;5.22;;
22786;SDS011;63134;52.020;4.714;2023-07-28T09:35:18;9.05;;;5.25;;
22786;SDS011;63134;52.020;4.714;2023-07-28T09:38:06;6.32;;;4.60;;
22786;SDS011;63134;52.020;4.714;2023-07-28T09:40:54;6.32;;;4.40;;
22786;SDS011;63134;52.020;4.714;2023-07-28T09:43:42;8.50;;;4.70;;
22786;SDS011;63134;52.020;4.714;2023-07-28T09:46:29;8.10;;;4.30;;
22786;SDS011;63134;52.020;4.714;2023-07-28T09:49:15;4.55;;;3.50;;
22786;SDS011;63134;52.020;4.714;2023-07-28T09:52:08;6.47;;;4.53;;
22786;SDS011;63134;52.020;4.714;2023-07-28T09:54:55;5.88;;;4.10;;
22786;SDS011;63134;52.020;4.714;2023-07-28T09:57:50;6.53;;;4.22;;
22786;SDS011;63134;52.020;4.714;2023-07-28T10:00:38;6.35;;;3.92;;
22786;SDS011;63134;52.020;4.714;2023-07-28T10:03:23;8.57;;;4.57;;
22786;SDS011;63134;52.020;4.714;2023-07-28T10:06:10;11.13;;;5.07;;
22786;SDS011;63134;52.020;4.714;2023-07-28T10:08:56;7.72;;;4.50;;
22786;SDS011;63134;52.020;4.714;2023-07-28T10:11:42;5.10;;;4.35;;
22786;SDS011;63134;52.020;4.714;2023-07-28T10:14:28;7.18;;;4.43;;
22786;SDS011;63134;52.020;4.714;2023-07-28T10:17:16;6.03;;;4.45;;
22786;SDS011;63134;52.020;4.714;2023-07-28T10:20:02;8.82;;;4.63;;
22786;SDS011;63134;52.020;4.714;2023-07-28T10:26:09;6.85;;;4.03;;
22786;SDS011;63134;52.020;4.714;2023-07-28T10:28:55;5.20;;;3.25;;
22786;SDS011;63134;52.020;4.714;2023-07-28T10:31:53;4.18;;;2.80;;
22786;SDS011;63134;52.020;4.714;2023-07-28T10:34:45;5.72;;;3.40;;
22786;SDS011;63134;52.020;4.714;2023-07-28T10:37:44;6.43;;;3.50;;
22786;SDS011;63134;52.020;4.714;2023-07-28T10:40:37;8.30;;;3.88;;
22786;SDS011;63134;52.020;4.714;2023-07-28T10:43:25;3.90;;;2.88;;
22786;SDS011;63134;52.020;4.714;2023-07-28T10:46:11;5.05;;;3.25;;
22786;SDS011;63134;52.020;4.714;2023-07-28T10:49:04;6.90;;;3.63;;
22786;SDS011;63134;52.020;4.714;2023-07-28T10:51:50;6.50;;;3.40;;
22786;SDS011;63134;52.020;4.714;2023-07-28T10:54:36;5.80;;;3.47;;
22786;SDS011;63134;52.020;4.714;2023-07-28T10:57:21;8.85;;;3.88;;
22786;SDS011;63134;52.020;4.714;2023-07-28T11:00:11;6.82;;;3.22;;
22786;SDS011;63134;52.020;4.714;2023-07-28T11:02:58;7.45;;;3.03;;
22786;SDS011;63134;52.020;4.714;2023-07-28T11:05:45;6.95;;;3.15;;
22786;SDS011;63134;52.020;4.714;2023-07-28T11:08:32;6.10;;;2.78;;
22786;SDS011;63134;52.020;4.714;2023-07-28T11:11:20;5.43;;;2.60;;
22786;SDS011;63134;52.020;4.714;2023-07-28T11:14:09;5.15;;;2.88;;
22786;SDS011;63134;52.020;4.714;2023-07-28T11:16:55;4.00;;;2.90;;
22786;SDS011;63134;52.020;4.714;2023-07-28T11:19:41;5.20;;;2.85;;
22786;SDS011;63134;52.020;4.714;2023-07-28T11:22:27;6.05;;;3.40;;
22786;SDS011;63134;52.020;4.714;2023-07-28T11:25:13;4.70;;;2.70;;
22786;SDS011;63134;52.020;4.714;2023-07-28T11:28:02;7.05;;;2.78;;
22786;SDS011;63134;52.020;4.714;2023-07-28T11:30:50;4.78;;;2.63;;
22786;SDS011;63134;52.020;4.714;2023-07-28T11:33:36;5.88;;;2.53;;
22786;SDS011;63134;52.020;4.714;2023-07-28T11:36:25;4.35;;;2.28;;
22786;SDS011;63134;52.020;4.714;2023-07-28T11:39:12;8.25;;;2.97;;
22786;SDS011;63134;52.020;4.714;2023-07-28T11:41:59;6.85;;;2.70;;
22786;SDS011;63134;52.020;4.714;2023-07-28T11:44:44;3.75;;;2.35;;
22786;SDS011;63134;52.020;4.714;2023-07-28T11:47:30;4.70;;;2.47;;
22786;SDS011;63134;52.020;4.714;2023-07-28T11:50:21;3.53;;;2.03;;
22786;SDS011;63134;52.020;4.714;2023-07-28T11:53:08;4.55;;;2.20;;
22786;SDS011;63134;52.020;4.714;2023-07-28T11:55:54;3.85;;;2.17;;
22786;SDS011;63134;52.020;4.714;2023-07-28T11:58:40;3.03;;;1.98;;
22786;SDS011;63134;52.020;4.714;2023-07-28T12:01:25;4.30;;;2.00;;
22786;SDS011;63134;52.020;4.714;2023-07-28T12:04:22;4.05;;;1.90;;
22786;SDS011;63134;52.020;4.714;2023-07-28T12:07:15;6.18;;;2.30;;
22786;SDS011;63134;52.020;4.714;2023-07-28T12:10:03;3.83;;;2.30;;
22786;SDS011;63134;52.020;4.714;2023-07-28T12:12:51;5.82;;;2.35;;
22786;SDS011;63134;52.020;4.714;2023-07-28T12:15:40;6.70;;;2.33;;
22786;SDS011;63134;52.020;4.714;2023-07-28T12:18:29;3.42;;;2.42;;
22786;SDS011;63134;52.020;4.714;2023-07-28T12:21:19;6.43;;;2.25;;
22786;SDS011;63134;52.020;4.714;2023-07-28T12:24:07;3.20;;;2.30;;
22786;SDS011;63134;52.020;4.714;2023-07-28T12:26:52;4.40;;;2.35;;
22786;SDS011;63134;52.020;4.714;2023-07-28T12:29:38;5.03;;;2.67;;
22786;SDS011;63134;52.020;4.714;2023-07-28T12:32:44;4.32;;;2.80;;
22786;SDS011;63134;52.020;4.714;2023-07-28T12:35:33;7.65;;;3.00;;
22786;SDS011;63134;52.020;4.714;2023-07-28T12:38:25;3.78;;;3.03;;
22786;SDS011;63134;52.020;4.714;2023-07-28T12:41:13;5.35;;;2.95;;
22786;SDS011;63134;52.020;4.714;2023-07-28T12:44:08;7.38;;;3.95;;
22786;SDS011;63134;52.020;4.714;2023-07-28T12:46:58;5.93;;;3.35;;
22786;SDS011;63134;52.020;4.714;2023-07-28T12:49:45;7.18;;;4.25;;
22786;SDS011;63134;52.020;4.714;2023-07-28T12:52:33;6.70;;;3.20;;
22786;SDS011;63134;52.020;4.714;2023-07-28T12:55:22;7.43;;;3.00;;
22786;SDS011;63134;52.020;4.714;2023-07-28T12:58:07;3.65;;;2.65;;
22786;SDS011;63134;52.020;4.714;2023-07-28T13:01:13;6.35;;;3.63;;
22786;SDS011;63134;52.020;4.714;2023-07-28T13:03:59;5.57;;;3.38;;
22786;SDS011;63134;52.020;4.714;2023-07-28T13:06:45;6.07;;;4.00;;
22786;SDS011;63134;52.020;4.714;2023-07-28T13:09:30;5.18;;;3.42;;
22786;SDS011;63134;52.020;4.714;2023-07-28T13:12:21;6.45;;;4.10;;
22786;SDS011;63134;52.020;4.714;2023-07-28T13:15:09;7.15;;;3.95;;
22786;SDS011;63134;52.020;4.714;2023-07-28T13:17:55;9.23;;;6.18;;
22786;SDS011;63134;52.020;4.714;2023-07-28T13:20:41;7.97;;;5.78;;
22786;SDS011;63134;52.020;4.714;2023-07-28T13:23:26;9.02;;;6.20;;
22786;SDS011;63134;52.020;4.714;2023-07-28T13:26:12;7.80;;;5.82;;
22786;SDS011;63134;52.020;4.714;2023-07-28T13:28:57;9.10;;;6.15;;
22786;SDS011;63134;52.020;4.714;2023-07-28T13:31:46;7.38;;;6.32;;
22786;SDS011;63134;52.020;4.714;2023-07-28T13:34:34;8.27;;;5.97;;
22786;SDS011;63134;52.020;4.714;2023-07-28T13:37:19;8.02;;;6.25;;
22786;SDS011;63134;52.020;4.714;2023-07-28T13:40:06;9.88;;;6.95;;
22786;SDS011;63134;52.020;4.714;2023-07-28T13:42:56;6.90;;;5.43;;
22786;SDS011;63134;52.020;4.714;2023-07-28T13:45:42;5.93;;;5.22;;
22786;SDS011;63134;52.020;4.714;2023-07-28T13:48:27;7.68;;;5.90;;
22786;SDS011;63134;52.020;4.714;2023-07-28T13:51:13;7.10;;;5.82;;
22786;SDS011;63134;52.020;4.714;2023-07-28T13:54:02;6.45;;;5.68;;
22786;SDS011;63134;52.020;4.714;2023-07-28T13:56:50;9.68;;;7.93;;
22786;SDS011;63134;52.020;4.714;2023-07-28T13:59:39;7.07;;;6.38;;
22786;SDS011;63134;52.020;4.714;2023-07-28T14:02:25;9.93;;;7.50;;
22786;SDS011;63134;52.020;4.714;2023-07-28T14:05:11;8.80;;;7.93;;
22786;SDS011;63134;52.020;4.714;2023-07-28T14:07:56;8.10;;;7.40;;
22786;SDS011;63134;52.020;4.714;2023-07-28T14:10:45;8.70;;;7.78;;
22786;SDS011;63134;52.020;4.714;2023-07-28T14:13:31;9.32;;;8.20;;
22786;SDS011;63134;52.020;4.714;2023-07-28T14:16:17;9.07;;;8.23;;
22786;SDS011;63134;52.020;4.714;2023-07-28T14:19:04;7.70;;;6.88;;
22786;SDS011;63134;52.020;4.714;2023-07-28T14:21:50;6.97;;;6.28;;
22786;SDS011;63134;52.020;4.714;2023-07-28T14:24:36;8.77;;;6.28;;
22786;SDS011;63134;52.020;4.714;2023-07-28T14:27:21;6.28;;;5.68;;
22786;SDS011;63134;52.020;4.714;2023-07-28T14:30:07;5.68;;;5.13;;
22786;SDS011;63134;52.020;4.714;2023-07-28T14:32:53;6.70;;;5.65;;
22786;SDS011;63134;52.020;4.714;2023-07-28T14:35:45;6.05;;;5.45;;
22786;SDS011;63134;52.020;4.714;2023-07-28T14:38:32;7.38;;;5.15;;
22786;SDS011;63134;52.020;4.714;2023-07-28T14:41:17;6.55;;;5.85;;
22786;SDS011;63134;52.020;4.714;2023-07-28T14:44:04;6.13;;;4.90;;
22786;SDS011;63134;52.020;4.714;2023-07-28T14:46:49;4.60;;;4.20;;
22786;SDS011;63134;52.020;4.714;2023-07-28T14:49:35;5.10;;;4.57;;
22786;SDS011;63134;52.020;4.714;2023-07-28T14:52:20;7.25;;;4.55;;
22786;SDS011;63134;52.020;4.714;2023-07-28T14:55:09;5.93;;;4.32;;
22786;SDS011;63134;52.020;4.714;2023-07-28T14:57:56;6.28;;;5.00;;
22786;SDS011;63134;52.020;4.714;2023-07-28T15:00:42;5.07;;;4.53;;
22786;SDS011;63134;52.020;4.714;2023-07-28T15:03:28;6.57;;;5.30;;
22786;SDS011;63134;52.020;4.714;2023-07-28T15:06:16;5.47;;;5.03;;
22786;SDS011;63134;52.020;4.714;2023-07-28T15:09:02;6.28;;;5.60;;
22786;SDS011;63134;52.020;4.714;2023-07-28T15:11:48;5.57;;;5.07;;
22786;SDS011;63134;52.020;4.714;2023-07-28T15:14:36;6.82;;;5.45;;
22786;SDS011;63134;52.020;4.714;2023-07-28T15:17:21;6.20;;;4.22;;
22786;SDS011;63134;52.020;4.714;2023-07-28T15:20:07;4.40;;;4.00;;
22786;SDS011;63134;52.020;4.714;2023-07-28T15:22:52;3.28;;;2.72;;
22786;SDS011;63134;52.020;4.714;2023-07-28T15:25:38;2.70;;;2.50;;
22786;SDS011;63134;52.020;4.714;2023-07-28T15:28:30;3.58;;;2.92;;
22786;SDS011;63134;52.020;4.714;2023-07-28T15:31:16;3.88;;;2.50;;
22786;SDS011;63134;52.020;4.714;2023-07-28T15:34:02;3.85;;;3.55;;
22786;SDS011;63134;52.020;4.714;2023-07-28T15:36:47;3.63;;;3.30;;
22786;SDS011;63134;52.020;4.714;2023-07-28T15:39:33;3.58;;;3.28;;
22786;SDS011;63134;52.020;4.714;2023-07-28T15:42:18;3.60;;;3.30;;
22786;SDS011;63134;52.020;4.714;2023-07-28T15:45:05;4.25;;;3.58;;
22786;SDS011;63134;52.020;4.714;2023-07-28T15:47:51;4.32;;;3.92;;
22786;SDS011;63134;52.020;4.714;2023-07-28T15:50:36;3.45;;;3.13;;
22786;SDS011;63134;52.020;4.714;2023-07-28T15:53:22;4.03;;;3.58;;
22786;SDS011;63134;52.020;4.714;2023-07-28T15:56:07;4.03;;;3.70;;
22786;SDS011;63134;52.020;4.714;2023-07-28T15:58:53;3.63;;;3.33;;
22786;SDS011;63134;52.020;4.714;2023-07-28T16:01:39;4.47;;;4.07;;
22786;SDS011;63134;52.020;4.714;2023-07-28T16:04:25;5.28;;;4.40;;
22786;SDS011;63134;52.020;4.714;2023-07-28T16:07:10;4.38;;;3.97;;
22786;SDS011;63134;52.020;4.714;2023-07-28T16:09:56;4.43;;;4.03;;
22786;SDS011;63134;52.020;4.714;2023-07-28T16:12:41;5.78;;;5.28;;
22786;SDS011;63134;52.020;4.714;2023-07-28T16:15:27;4.20;;;3.80;;
22786;SDS011;63134;52.020;4.714;2023-07-28T16:18:13;5.53;;;4.55;;
22786;SDS011;63134;52.020;4.714;2023-07-28T16:20:58;3.83;;;3.53;;
22786;SDS011;63134;52.020;4.714;2023-07-28T16:23:44;4.22;;;3.90;;
22786;SDS011;63134;52.020;4.714;2023-07-28T16:26:29;4.28;;;3.88;;
22786;SDS011;63134;52.020;4.714;2023-07-28T16:29:15;4.70;;;4.30;;
22786;SDS011;63134;52.020;4.714;2023-07-28T16:32:00;5.65;;;4.43;;
22786;SDS011;63134;52.020;4.714;2023-07-28T16:34:46;5.35;;;4.85;;
22786;SDS011;63134;52.020;4.714;2023-07-28T16:37:32;4.88;;;4.25;;
22786;SDS011;63134;52.020;4.714;2023-07-28T16:40:17;5.05;;;4.47;;
22786;SDS011;63134;52.020;4.714;2023-07-28T16:43:03;4.82;;;4.43;;
22786;SDS011;63134;52.020;4.714;2023-07-28T16:45:48;4.28;;;3.72;;